sensor_id;sensor_type;location;lat;lon;timestamp;pressure;altitude;pressure_sealevel;temperature;humidity
33454;BME280;39400;49.744;7.012;2023-03-04T00:02:01;96577.88;;;-0.67;100.00
33454;BME280;39400;49.744;7.012;2023-03-04T00:04:27;96586.72;;;-0.53;100.00
33454;BME280;39400;49.744;7.012;2023-03-04T00:06:52;96587.97;;;-0.59;100.00
33454;BME280;39400;49.744;7.012;2023-03-04T00:09:17;96580.81;;;-0.41;100.00
33454;BME280;39400;49.744;7.012;2023-03-04T00:11:43;96580.81;;;-0.41;100.00
33454;BME280;39400;49.744;7.012;2023-03-04T00:14:08;96578.75;;;-0.35;100.00
33454;BME280;39400;49.744;7.012;2023-03-04T00:16:34;96590.16;;;-0.38;100.00
33454;BME280;39400;49.744;7.012;2023-03-04T00:18:59;96581.16;;;-0.34;100.00
33454;BME280;39400;49.744;7.012;2023-03-04T00:21:24;96581.53;;;-0.27;100.00
33454;BME280;39400;49.744;7.012;2023-03-04T00:23:59;96578.06;;;-0.18;100.00
33454;BME280;39400;49.744;7.012;2023-03-04T00:26:24;96574.81;;;-0.29;100.00
33454;BME280;39400;49.744;7.012;2023-03-04T00:28:49;96573.53;;;-0.32;100.00
33454;BME280;39400;49.744;7.012;2023-03-04T00:31:15;96575.34;;;-0.27;100.00
33454;BME280;39400;49.744;7.012;2023-03-04T00:33:40;96571.88;;;-0.19;100.00
33454;BME280;39400;49.744;7.012;2023-03-04T00:36:06;96566.97;;;-0.17;100.00
33454;BME280;39400;49.744;7.012;2023-03-04T00:38:31;96570.66;;;-0.13;100.00
33454;BME280;39400;49.744;7.012;2023-03-04T00:40:56;96569.22;;;-0.10;100.00
33454;BME280;39400;49.744;7.012;2023-03-04T00:43:22;96575.44;;;-0.10;100.00
33454;BME280;39400;49.744;7.012;2023-03-04T00:45:48;96570.50;;;-0.08;100.00
33454;BME280;39400;49.744;7.012;2023-03-04T00:48:13;96566.03;;;-0.12;100.00
33454;BME280;39400;49.744;7.012;2023-03-04T00:50:39;96564.97;;;-0.03;100.00
33454;BME280;39400;49.744;7.012;2023-03-04T00:53:04;96569.06;;;-0.14;100.00
33454;BME280;39400;49.744;7.012;2023-03-04T00:55:30;96568.91;;;-0.09;100.00
33454;BME280;39400;49.744;7.012;2023-03-04T00:57:55;96564.00;;;-0.07;100.00
33454;BME280;39400;49.744;7.012;2023-03-04T01:00:21;96560.09;;;-0.23;100.00
33454;BME280;39400;49.744;7.012;2023-03-04T01:02:46;96560.81;;;-0.09;100.00
33454;BME280;39400;49.744;7.012;2023-03-04T01:05:13;96557.75;;;-0.16;100.00
33454;BME280;39400;49.744;7.012;2023-03-04T01:07:38;96559.41;;;-0.06;100.00
33454;BME280;39400;49.744;7.012;2023-03-04T01:10:05;96563.75;;;0.04;100.00
33454;BME280;39400;49.744;7.012;2023-03-04T01:12:30;96563.50;;;-0.09;100.00
33454;BME280;39400;49.744;7.012;2023-03-04T01:14:58;96556.25;;;0.01;100.00
33454;BME280;39400;49.744;7.012;2023-03-04T01:17:23;96554.06;;;0.11;100.00
33454;BME280;39400;49.744;7.012;2023-03-04T01:19:48;96552.63;;;0.14;100.00
33454;BME280;39400;49.744;7.012;2023-03-04T01:22:15;96555.75;;;-0.02;100.00
33454;BME280;39400;49.744;7.012;2023-03-04T01:24:40;96555.22;;;0.19;100.00
33454;BME280;39400;49.744;7.012;2023-03-04T01:27:05;96554.38;;;0.10;100.00
33454;BME280;39400;49.744;7.012;2023-03-04T01:29:31;96558.69;;;0.11;100.00
33454;BME280;39400;49.744;7.012;2023-03-04T01:31:56;96551.94;;;-0.01;100.00
33454;BME280;39400;49.744;7.012;2023-03-04T01:34:21;96557.75;;;0.15;100.00
33454;BME280;39400;49.744;7.012;2023-03-04T01:36:47;96547.72;;;0.16;100.00
33454;BME280;39400;49.744;7.012;2023-03-04T01:39:12;96552.47;;;0.10;100.00
33454;BME280;39400;49.744;7.012;2023-03-04T01:41:37;96536.41;;;0.14;100.00
33454;BME280;39400;49.744;7.012;2023-03-04T01:44:03;96538.47;;;0.08;100.00
33454;BME280;39400;49.744;7.012;2023-03-04T01:46:29;96537.84;;;0.11;100.00
33454;BME280;39400;49.744;7.012;2023-03-04T01:48:56;96523.22;;;0.12;100.00
33454;BME280;39400;49.744;7.012;2023-03-04T01:51:22;96526.59;;;0.18;100.00
33454;BME280;39400;49.744;7.012;2023-03-04T01:53:49;96524.00;;;0.13;100.00
33454;BME280;39400;49.744;7.012;2023-03-04T01:56:28;96516.16;;;0.03;100.00
33454;BME280;39400;49.744;7.012;2023-03-04T01:59:16;96515.09;;;0.04;100.00
33454;BME280;39400;49.744;7.012;2023-03-04T02:01:45;96509.31;;;-0.04;100.00
33454;BME280;39400;49.744;7.012;2023-03-04T02:04:11;96505.78;;;-0.13;100.00
33454;BME280;39400;49.744;7.012;2023-03-04T02:06:38;96510.75;;;-0.06;100.00
33454;BME280;39400;49.744;7.012;2023-03-04T02:09:05;96508.84;;;-0.06;100.00
33454;BME280;39400;49.744;7.012;2023-03-04T02:11:31;96506.41;;;-0.16;100.00
33454;BME280;39400;49.744;7.012;2023-03-04T02:13:58;96503.38;;;-0.14;100.00
33454;BME280;39400;49.744;7.012;2023-03-04T02:16:24;96500.09;;;-0.03;100.00
33454;BME280;39400;49.744;7.012;2023-03-04T02:18:49;96493.22;;;0.31;100.00
33454;BME280;39400;49.744;7.012;2023-03-04T02:21:33;96496.69;;;0.23;100.00
33454;BME280;39400;49.744;7.012;2023-03-04T02:24:04;96489.06;;;0.25;100.00
33454;BME280;39400;49.744;7.012;2023-03-04T02:26:31;96489.88;;;0.26;100.00
33454;BME280;39400;49.744;7.012;2023-03-04T02:28:59;96478.31;;;0.03;100.00
33454;BME280;39400;49.744;7.012;2023-03-04T02:31:26;96486.66;;;0.15;100.00
33454;BME280;39400;49.744;7.012;2023-03-04T02:33:55;96482.72;;;0.21;100.00
33454;BME280;39400;49.744;7.012;2023-03-04T02:36:22;96478.59;;;0.32;100.00
33454;BME280;39400;49.744;7.012;2023-03-04T02:38:49;96477.63;;;0.28;100.00
33454;BME280;39400;49.744;7.012;2023-03-04T02:41:18;96476.59;;;0.07;100.00
33454;BME280;39400;49.744;7.012;2023-03-04T02:43:45;96478.84;;;0.13;100.00
33454;BME280;39400;49.744;7.012;2023-03-04T02:46:12;96472.91;;;0.03;100.00
33454;BME280;39400;49.744;7.012;2023-03-04T02:48:37;96469.44;;;0.02;100.00
33454;BME280;39400;49.744;7.012;2023-03-04T02:51:03;96478.19;;;0.08;100.00
33454;BME280;39400;49.744;7.012;2023-03-04T02:53:31;96474.25;;;-0.17;100.00
33454;BME280;39400;49.744;7.012;2023-03-04T02:55:57;96475.81;;;-0.25;100.00
33454;BME280;39400;49.744;7.012;2023-03-04T02:58:23;96482.97;;;-0.29;100.00
33454;BME280;39400;49.744;7.012;2023-03-04T03:00:48;96481.41;;;-0.21;100.00
33454;BME280;39400;49.744;7.012;2023-03-04T03:03:14;96474.75;;;-0.24;100.00
33454;BME280;39400;49.744;7.012;2023-03-04T03:05:40;96488.25;;;-0.24;100.00
33454;BME280;39400;49.744;7.012;2023-03-04T03:08:07;96488.38;;;-0.29;100.00
33454;BME280;39400;49.744;7.012;2023-03-04T03:10:32;96477.44;;;-0.24;100.00
33454;BME280;39400;49.744;7.012;2023-03-04T03:12:58;96477.13;;;-0.22;100.00
33454;BME280;39400;49.744;7.012;2023-03-04T03:15:24;96479.66;;;-0.26;100.00
33454;BME280;39400;49.744;7.012;2023-03-04T03:17:49;96473.31;;;-0.21;100.00
33454;BME280;39400;49.744;7.012;2023-03-04T03:20:15;96471.38;;;-0.21;100.00
33454;BME280;39400;49.744;7.012;2023-03-04T03:22:41;96485.56;;;-0.24;100.00
33454;BME280;39400;49.744;7.012;2023-03-04T03:25:09;96471.97;;;-0.33;100.00
33454;BME280;39400;49.744;7.012;2023-03-04T03:27:35;96473.75;;;-0.28;100.00
33454;BME280;39400;49.744;7.012;2023-03-04T03:30:00;96476.44;;;-0.28;100.00
33454;BME280;39400;49.744;7.012;2023-03-04T03:32:26;96481.22;;;-0.25;100.00
33454;BME280;39400;49.744;7.012;2023-03-04T03:34:51;96471.03;;;-0.28;100.00
33454;BME280;39400;49.744;7.012;2023-03-04T03:37:17;96479.66;;;-0.26;100.00
33454;BME280;39400;49.744;7.012;2023-03-04T03:39:43;96475.47;;;-0.32;100.00
33454;BME280;39400;49.744;7.012;2023-03-04T03:42:08;96469.34;;;-0.24;100.00
33454;BME280;39400;49.744;7.012;2023-03-04T03:44:33;96473.38;;;-0.35;100.00
33454;BME280;39400;49.744;7.012;2023-03-04T03:46:58;96471.03;;;-0.28;100.00
33454;BME280;39400;49.744;7.012;2023-03-04T03:49:24;96472.78;;;-0.32;100.00
33454;BME280;39400;49.744;7.012;2023-03-04T03:51:49;96468.59;;;-0.38;100.00
33454;BME280;39400;49.744;7.012;2023-03-04T03:54:15;96471.31;;;-0.38;100.00
33454;BME280;39400;49.744;7.012;2023-03-04T03:56:40;96473.38;;;-0.35;100.00
33454;BME280;39400;49.744;7.012;2023-03-04T03:59:06;96472.91;;;-0.37;100.00
33454;BME280;39400;49.744;7.012;2023-03-04T04:01:32;96466.09;;;-0.35;100.00
33454;BME280;39400;49.744;7.012;2023-03-04T04:03:57;96473.22;;;-0.39;100.00
33454;BME280;39400;49.744;7.012;2023-03-04T04:06:22;96470.34;;;-0.42;100.00
33454;BME280;39400;49.744;7.012;2023-03-04T04:08:47;96470.75;;;-0.27;100.00
33454;BME280;39400;49.744;7.012;2023-03-04T04:11:13;96471.47;;;-0.35;100.00
33454;BME280;39400;49.744;7.012;2023-03-04T04:13:38;96467.88;;;-0.30;100.00
33454;BME280;39400;49.744;7.012;2023-03-04T04:16:04;96467.72;;;-0.25;100.00
33454;BME280;39400;49.744;7.012;2023-03-04T04:18:29;96462.66;;;-0.18;100.00
33454;BME280;39400;49.744;7.012;2023-03-04T04:20:55;96465.88;;;-0.16;100.00
33454;BME280;39400;49.744;7.012;2023-03-04T04:23:20;96466.81;;;-0.12;100.00
33454;BME280;39400;49.744;7.012;2023-03-04T04:25:45;96465.41;;;-0.09;100.00
33454;BME280;39400;49.744;7.012;2023-03-04T04:28:11;96462.09;;;-0.06;100.00
33454;BME280;39400;49.744;7.012;2023-03-04T04:30:37;96460.31;;;-0.11;100.00
33454;BME280;39400;49.744;7.012;2023-03-04T04:33:02;96460.47;;;-0.07;100.00
33454;BME280;39400;49.744;7.012;2023-03-04T04:35:28;96451.91;;;-0.09;100.00
33454;BME280;39400;49.744;7.012;2023-03-04T04:37:54;96455.91;;;-0.07;100.00
33454;BME280;39400;49.744;7.012;2023-03-04T04:40:19;96452.53;;;-0.04;100.00
33454;BME280;39400;49.744;7.012;2023-03-04T04:42:44;96460.31;;;-0.11;100.00
33454;BME280;39400;49.744;7.012;2023-03-04T04:45:10;96457.13;;;-0.13;100.00
33454;BME280;39400;49.744;7.012;2023-03-04T04:47:36;96457.59;;;-0.11;100.00
33454;BME280;39400;49.744;7.012;2023-03-04T04:50:01;96459.22;;;-0.01;100.00
33454;BME280;39400;49.744;7.012;2023-03-04T04:52:27;96457.19;;;0.05;100.00
33454;BME280;39400;49.744;7.012;2023-03-04T04:54:52;96459.22;;;-0.10;100.00
33454;BME280;39400;49.744;7.012;2023-03-04T04:57:17;96460.03;;;-0.01;100.00
33454;BME280;39400;49.744;7.012;2023-03-04T04:59:42;96456.06;;;-0.03;100.00
33454;BME280;39400;49.744;7.012;2023-03-04T05:02:08;96462.25;;;-0.03;100.00
33454;BME280;39400;49.744;7.012;2023-03-04T05:04:33;96463.56;;;0.00;100.00
33454;BME280;39400;49.744;7.012;2023-03-04T05:06:58;96464.63;;;-0.01;100.00
33454;BME280;39400;49.744;7.012;2023-03-04T05:09:24;96465.09;;;-0.08;100.00
33454;BME280;39400;49.744;7.012;2023-03-04T05:11:49;96462.25;;;-0.03;100.00
33454;BME280;39400;49.744;7.012;2023-03-04T05:14:15;96467.50;;;0.03;100.00
33454;BME280;39400;49.744;7.012;2023-03-04T05:16:40;96463.16;;;-0.16;100.00
33454;BME280;39400;49.744;7.012;2023-03-04T05:19:05;96462.72;;;-0.09;100.00
33454;BME280;39400;49.744;7.012;2023-03-04T05:21:31;96452.69;;;-0.09;100.00
33454;BME280;39400;49.744;7.012;2023-03-04T05:23:56;96459.22;;;-0.01;100.00
33454;BME280;39400;49.744;7.012;2023-03-04T05:26:21;96456.84;;;-0.03;100.00
33454;BME280;39400;49.744;7.012;2023-03-04T05:28:47;96459.41;;;0.03;100.00
33454;BME280;39400;49.744;7.012;2023-03-04T05:31:12;96467.66;;;-0.03;100.00
33454;BME280;39400;49.744;7.012;2023-03-04T05:33:38;96465.09;;;-0.08;100.00
33454;BME280;39400;49.744;7.012;2023-03-04T05:36:04;96469.53;;;-0.12;100.00
33454;BME280;39400;49.744;7.012;2023-03-04T05:38:30;96469.88;;;-0.05;100.00
33454;BME280;39400;49.744;7.012;2023-03-04T05:40:57;96464.47;;;-0.05;100.00
33454;BME280;39400;49.744;7.012;2023-03-04T05:43:23;96480.50;;;-0.08;100.00
33454;BME280;39400;49.744;7.012;2023-03-04T05:45:49;96463.50;;;-0.09;100.00
33454;BME280;39400;49.744;7.012;2023-03-04T05:48:14;96473.69;;;-0.06;100.00
33454;BME280;39400;49.744;7.012;2023-03-04T05:50:40;96472.72;;;-0.10;100.00
33454;BME280;39400;49.744;7.012;2023-03-04T05:53:08;96476.78;;;-0.21;100.00
33454;BME280;39400;49.744;7.012;2023-03-04T05:55:33;96474.25;;;-0.26;100.00
33454;BME280;39400;49.744;7.012;2023-03-04T05:57:58;96475.47;;;-0.32;100.00
33454;BME280;39400;49.744;7.012;2023-03-04T06:00:24;96472.03;;;-0.24;100.00
33454;BME280;39400;49.744;7.012;2023-03-04T06:02:49;96478.31;;;-0.37;100.00
33454;BME280;39400;49.744;7.012;2023-03-04T06:05:15;96469.44;;;-0.38;100.00
33454;BME280;39400;49.744;7.012;2023-03-04T06:07:41;96478.31;;;-0.37;100.00
33454;BME280;39400;49.744;7.012;2023-03-04T06:10:08;96478.94;;;-0.40;100.00
33454;BME280;39400;49.744;7.012;2023-03-04T06:12:34;96471.78;;;-0.45;100.00
33454;BME280;39400;49.744;7.012;2023-03-04T06:14:59;96476.63;;;-0.56;100.00
33454;BME280;39400;49.744;7.012;2023-03-04T06:17:24;96475.88;;;-0.47;100.00
33454;BME280;39400;49.744;7.012;2023-03-04T06:19:50;96472.66;;;-0.58;100.00
33454;BME280;39400;49.744;7.012;2023-03-04T06:22:15;96477.72;;;-0.57;100.00
33454;BME280;39400;49.744;7.012;2023-03-04T06:24:41;96487.38;;;-0.64;100.00
33454;BME280;39400;49.744;7.012;2023-03-04T06:27:06;96493.22;;;-0.71;100.00
33454;BME280;39400;49.744;7.012;2023-03-04T06:29:31;96487.81;;;-0.71;100.00
33454;BME280;39400;49.744;7.012;2023-03-04T06:31:57;96489.41;;;-0.70;100.00
33454;BME280;39400;49.744;7.012;2023-03-04T06:34:22;96496.28;;;-0.64;100.00
33454;BME280;39400;49.744;7.012;2023-03-04T06:36:47;96493.72;;;-0.69;100.00
33454;BME280;39400;49.744;7.012;2023-03-04T06:39:13;96501.72;;;-0.78;100.00
33454;BME280;39400;49.744;7.012;2023-03-04T06:41:38;96508.28;;;-0.70;100.00
33454;BME280;39400;49.744;7.012;2023-03-04T06:44:04;96507.06;;;-0.64;100.00
33454;BME280;39400;49.744;7.012;2023-03-04T06:46:29;96507.56;;;-0.62;100.00
33454;BME280;39400;49.744;7.012;2023-03-04T06:48:55;96513.34;;;-0.55;100.00
33454;BME280;39400;49.744;7.012;2023-03-04T06:51:20;96513.63;;;-0.56;100.00
33454;BME280;39400;49.744;7.012;2023-03-04T06:53:46;96516.03;;;-0.55;100.00
33454;BME280;39400;49.744;7.012;2023-03-04T06:56:12;96514.59;;;-0.52;100.00
33454;BME280;39400;49.744;7.012;2023-03-04T06:58:38;96511.78;;;-0.47;100.00
33454;BME280;39400;49.744;7.012;2023-03-04T07:03:40;96517.38;;;-0.43;100.00
33454;BME280;39400;49.744;7.012;2023-03-04T07:06:06;96525.81;;;-0.45;100.00
33454;BME280;39400;49.744;7.012;2023-03-04T07:08:33;96533.00;;;-0.32;100.00
33454;BME280;39400;49.744;7.012;2023-03-04T07:10:58;96526.09;;;-0.46;100.00
33454;BME280;39400;49.744;7.012;2023-03-04T07:13:24;96536.78;;;-0.41;100.00
33454;BME280;39400;49.744;7.012;2023-03-04T07:15:49;96534.91;;;-0.32;100.00
33454;BME280;39400;49.744;7.012;2023-03-04T07:18:14;96540.31;;;-0.32;100.00
33454;BME280;39400;49.744;7.012;2023-03-04T07:20:40;96544.13;;;-0.33;100.00
33454;BME280;39400;49.744;7.012;2023-03-04T07:23:05;96541.78;;;-0.26;100.00
33454;BME280;39400;49.744;7.012;2023-03-04T07:25:49;96540.50;;;-0.29;100.00
33454;BME280;39400;49.744;7.012;2023-03-04T07:28:16;96545.09;;;-0.29;100.00
33454;BME280;39400;49.744;7.012;2023-03-04T07:30:41;96540.06;;;-0.22;100.00
33454;BME280;39400;49.744;7.012;2023-03-04T07:33:06;96540.41;;;-0.15;100.00
33454;BME280;39400;49.744;7.012;2023-03-04T07:35:32;96534.56;;;-0.08;100.00
33454;BME280;39400;49.744;7.012;2023-03-04T07:37:57;96539.53;;;-0.02;100.00
33454;BME280;39400;49.744;7.012;2023-03-04T07:40:23;96541.56;;;-0.07;100.00
33454;BME280;39400;49.744;7.012;2023-03-04T07:42:49;96538.81;;;-0.16;100.00
33454;BME280;39400;49.744;7.012;2023-03-04T07:45:15;96540.59;;;-0.11;100.00
33454;BME280;39400;49.744;7.012;2023-03-04T07:47:40;96544.31;;;0.02;100.00
33454;BME280;39400;49.744;7.012;2023-03-04T07:50:06;96542.13;;;0.04;100.00
33454;BME280;39400;49.744;7.012;2023-03-04T07:52:31;96543.53;;;0.01;100.00
33454;BME280;39400;49.744;7.012;2023-03-04T07:54:57;96548.31;;;0.04;100.00
33454;BME280;39400;49.744;7.012;2023-03-04T07:57:22;96544.34;;;0.10;100.00
33454;BME280;39400;49.744;7.012;2023-03-04T07:59:47;96553.09;;;0.07;100.00
33454;BME280;39400;49.744;7.012;2023-03-04T08:02:13;96546.44;;;0.13;100.00
33454;BME280;39400;49.744;7.012;2023-03-04T08:04:38;96546.00;;;0.20;100.00
33454;BME280;39400;49.744;7.012;2023-03-04T08:07:03;96551.75;;;0.27;100.00
33454;BME280;39400;49.744;7.012;2023-03-04T08:09:29;96557.66;;;0.38;100.00
33454;BME280;39400;49.744;7.012;2023-03-04T08:11:54;96546.38;;;0.44;100.00
33454;BME280;39400;49.744;7.012;2023-03-04T08:14:19;96543.56;;;0.50;100.00
33454;BME280;39400;49.744;7.012;2023-03-04T08:16:45;96544.53;;;0.54;100.00
33454;BME280;39400;49.744;7.012;2023-03-04T08:19:10;96547.22;;;0.62;100.00
33454;BME280;39400;49.744;7.012;2023-03-04T08:21:36;96548.63;;;0.51;100.00
33454;BME280;39400;49.744;7.012;2023-03-04T08:24:02;96545.47;;;0.58;100.00
33454;BME280;39400;49.744;7.012;2023-03-04T08:26:32;96547.22;;;0.54;100.00
33454;BME280;39400;49.744;7.012;2023-03-04T08:29:00;96552.13;;;0.52;100.00
33454;BME280;39400;49.744;7.012;2023-03-04T08:31:25;96545.66;;;0.61;100.00
33454;BME280;39400;49.744;7.012;2023-03-04T08:33:51;96539.72;;;0.51;100.00
33454;BME280;39400;49.744;7.012;2023-03-04T08:36:16;96544.84;;;0.61;100.00
33454;BME280;39400;49.744;7.012;2023-03-04T08:38:42;96549.63;;;0.64;100.00
33454;BME280;39400;49.744;7.012;2023-03-04T08:41:07;96549.00;;;0.67;100.00
33454;BME280;39400;49.744;7.012;2023-03-04T08:43:33;96549.34;;;0.74;100.00
33454;BME280;39400;49.744;7.012;2023-03-04T08:45:59;96550.81;;;0.80;100.00
33454;BME280;39400;49.744;7.012;2023-03-04T08:48:25;96552.72;;;0.80;100.00
33454;BME280;39400;49.744;7.012;2023-03-04T08:50:51;96544.25;;;0.81;100.00
33454;BME280;39400;49.744;7.012;2023-03-04T08:53:17;96558.75;;;0.85;100.00
33454;BME280;39400;49.744;7.012;2023-03-04T08:55:43;96557.63;;;0.86;100.00
33454;BME280;39400;49.744;7.012;2023-03-04T08:58:09;96555.59;;;0.83;100.00
33454;BME280;39400;49.744;7.012;2023-03-04T09:00:36;96561.16;;;0.87;100.00
33454;BME280;39400;49.744;7.012;2023-03-04T09:03:02;96558.63;;;0.99;100.00
33454;BME280;39400;49.744;7.012;2023-03-04T09:05:28;96563.25;;;0.99;100.00
33454;BME280;39400;49.744;7.012;2023-03-04T09:07:53;96567.84;;;0.89;100.00
33454;BME280;39400;49.744;7.012;2023-03-04T09:10:19;96573.44;;;1.02;100.00
33454;BME280;39400;49.744;7.012;2023-03-04T09:12:44;96567.69;;;1.03;100.00
33454;BME280;39400;49.744;7.012;2023-03-04T09:15:10;96570.56;;;0.98;100.00
33454;BME280;39400;49.744;7.012;2023-03-04T09:17:35;96572.47;;;1.06;100.00
33454;BME280;39400;49.744;7.012;2023-03-04T09:20:01;96571.22;;;1.12;100.00
33454;BME280;39400;49.744;7.012;2023-03-04T09:22:26;96570.28;;;1.08;100.00
33454;BME280;39400;49.744;7.012;2023-03-04T09:24:52;96574.88;;;1.08;100.00
33454;BME280;39400;49.744;7.012;2023-03-04T09:27:17;96573.28;;;1.07;100.00
33454;BME280;39400;49.744;7.012;2023-03-04T09:29:42;96576.47;;;1.09;100.00
33454;BME280;39400;49.744;7.012;2023-03-04T09:32:08;96569.16;;;1.01;100.00
33454;BME280;39400;49.744;7.012;2023-03-04T09:34:33;96577.75;;;1.03;100.00
33454;BME280;39400;49.744;7.012;2023-03-04T09:36:58;96582.31;;;0.93;100.00
33454;BME280;39400;49.744;7.012;2023-03-04T09:39:24;96580.94;;;1.05;100.00
33454;BME280;39400;49.744;7.012;2023-03-04T09:41:51;96571.84;;;1.01;100.00
33454;BME280;39400;49.744;7.012;2023-03-04T09:44:23;96576.81;;;1.16;100.00
33454;BME280;39400;49.744;7.012;2023-03-04T09:46:50;96575.53;;;1.22;100.00
33454;BME280;39400;49.744;7.012;2023-03-04T09:49:18;96578.22;;;1.13;100.00
33454;BME280;39400;49.744;7.012;2023-03-04T09:57:42;96576.50;;;1.26;100.00
33454;BME280;39400;49.744;7.012;2023-03-04T10:00:20;96572.97;;;1.34;100.00
33454;BME280;39400;49.744;7.012;2023-03-04T10:03:05;96575.84;;;1.29;100.00
33454;BME280;39400;49.744;7.012;2023-03-04T10:05:37;96579.19;;;1.26;100.00
33454;BME280;39400;49.744;7.012;2023-03-04T10:10:57;96576.34;;;1.40;100.00
33454;BME280;39400;49.744;7.012;2023-03-04T10:13:39;96578.56;;;1.64;100.00
33454;BME280;39400;49.744;7.012;2023-03-04T10:16:10;96578.25;;;1.48;100.00
33454;BME280;39400;49.744;7.012;2023-03-04T10:18:47;96579.69;;;1.46;100.00
33454;BME280;39400;49.744;7.012;2023-03-04T10:21:35;96577.13;;;1.40;100.00
33454;BME280;39400;49.744;7.012;2023-03-04T10:24:14;96572.03;;;1.48;100.00
33454;BME280;39400;49.744;7.012;2023-03-04T10:26:43;96574.75;;;1.56;100.00
33454;BME280;39400;49.744;7.012;2023-03-04T10:29:18;96575.38;;;1.45;100.00
33454;BME280;39400;49.744;7.012;2023-03-04T10:31:45;96571.06;;;1.61;100.00
33454;BME280;39400;49.744;7.012;2023-03-04T10:34:12;96574.56;;;1.70;100.00
33454;BME280;39400;49.744;7.012;2023-03-04T10:36:46;96580.00;;;1.70;100.00
33454;BME280;39400;49.744;7.012;2023-03-04T10:39:20;96585.09;;;1.72;100.00
33454;BME280;39400;49.744;7.012;2023-03-04T10:44:26;96575.69;;;1.78;100.00
33454;BME280;39400;49.744;7.012;2023-03-04T10:46:53;96569.63;;;1.72;100.00
33454;BME280;39400;49.744;7.012;2023-03-04T10:49:20;96576.66;;;1.64;100.00
33454;BME280;39400;49.744;7.012;2023-03-04T10:52:16;96570.25;;;1.78;100.00
33454;BME280;39400;49.744;7.012;2023-03-04T10:54:51;96569.63;;;1.81;100.00
33454;BME280;39400;49.744;7.012;2023-03-04T10:57:22;96569.13;;;1.87;100.00
33454;BME280;39400;49.744;7.012;2023-03-04T10:59:56;96569.28;;;1.82;100.00
33454;BME280;39400;49.744;7.012;2023-03-04T11:02:27;96561.44;;;1.89;100.00
33454;BME280;39400;49.744;7.012;2023-03-04T11:04:56;96565.59;;;1.96;100.00
33454;BME280;39400;49.744;7.012;2023-03-04T11:07:25;96565.72;;;2.08;100.00
33454;BME280;39400;49.744;7.012;2023-03-04T11:09:51;96563.03;;;2.08;100.00
33454;BME280;39400;49.744;7.012;2023-03-04T11:12:20;96563.81;;;2.00;100.00
33454;BME280;39400;49.744;7.012;2023-03-04T11:14:46;96567.50;;;1.86;100.00
33454;BME280;39400;49.744;7.012;2023-03-04T11:19:46;96550.75;;;2.02;100.00
33454;BME280;39400;49.744;7.012;2023-03-04T11:22:15;96561.44;;;1.89;100.00
33454;BME280;39400;49.744;7.012;2023-03-04T11:24:42;96557.97;;;1.80;100.00
33454;BME280;39400;49.744;7.012;2023-03-04T11:27:17;96553.81;;;1.92;100.00
33454;BME280;39400;49.744;7.012;2023-03-04T11:29:54;96551.53;;;2.02;100.00
33454;BME280;39400;49.744;7.012;2023-03-04T11:32:36;96552.31;;;2.03;100.00
33454;BME280;39400;49.744;7.012;2023-03-04T11:37:53;96548.03;;;2.02;100.00
33454;BME280;39400;49.744;7.012;2023-03-04T11:40:32;96542.91;;;2.09;100.00
33454;BME280;39400;49.744;7.012;2023-03-04T11:49:01;96529.22;;;1.97;100.00
33454;BME280;39400;49.744;7.012;2023-03-04T11:56:52;96530.81;;;1.98;100.00
33454;BME280;39400;49.744;7.012;2023-03-04T11:59:28;96524.72;;;2.01;100.00
33454;BME280;39400;49.744;7.012;2023-03-04T12:10:56;96525.69;;;2.05;100.00
33454;BME280;39400;49.744;7.012;2023-03-04T12:26:57;96506.84;;;2.47;100.00
33454;BME280;39400;49.744;7.012;2023-03-04T12:29:35;96501.94;;;2.31;100.00
33454;BME280;39400;49.744;7.012;2023-03-04T12:32:22;96498.59;;;2.34;100.00
33454;BME280;39400;49.744;7.012;2023-03-04T12:34:56;96513.44;;;2.28;100.00
33454;BME280;39400;49.744;7.012;2023-03-04T12:51:46;96491.00;;;2.49;100.00
33454;BME280;39400;49.744;7.012;2023-03-04T12:54:22;96485.69;;;2.61;100.00
33454;BME280;39400;49.744;7.012;2023-03-04T12:59:36;96486.91;;;2.43;100.00
33454;BME280;39400;49.744;7.012;2023-03-04T13:10:14;96464.25;;;2.89;100.00
33454;BME280;39400;49.744;7.012;2023-03-04T13:12:48;96457.75;;;2.81;100.00
33454;BME280;39400;49.744;7.012;2023-03-04T13:17:51;96462.19;;;3.07;100.00
33454;BME280;39400;49.744;7.012;2023-03-04T13:43:27;96446.28;;;2.97;100.00
33454;BME280;39400;49.744;7.012;2023-03-04T13:45:53;96447.56;;;2.99;100.00
33454;BME280;39400;49.744;7.012;2023-03-04T13:51:18;96445.69;;;3.12;100.00
33454;BME280;39400;49.744;7.012;2023-03-04T13:53:54;96438.22;;;3.09;100.00
33454;BME280;39400;49.744;7.012;2023-03-04T13:56:43;96442.50;;;3.10;100.00
33454;BME280;39400;49.744;7.012;2023-03-04T14:04:16;96428.75;;;3.27;100.00
33454;BME280;39400;49.744;7.012;2023-03-04T14:06:43;96429.84;;;3.14;100.00
33454;BME280;39400;49.744;7.012;2023-03-04T14:09:18;96435.09;;;3.19;100.00
33454;BME280;39400;49.744;7.012;2023-03-04T14:11:43;96427.59;;;3.16;100.00
33454;BME280;39400;49.744;7.012;2023-03-04T14:14:17;96430.09;;;3.21;100.00
33454;BME280;39400;49.744;7.012;2023-03-04T14:16:54;96424.25;;;3.31;100.00
33454;BME280;39400;49.744;7.012;2023-03-04T14:21:51;96427.38;;;3.54;100.00
33454;BME280;39400;49.744;7.012;2023-03-04T14:24:19;96412.53;;;3.52;100.00
33454;BME280;39400;49.744;7.012;2023-03-04T14:27:12;96411.41;;;3.65;100.00
33454;BME280;39400;49.744;7.012;2023-03-04T14:29:38;96413.63;;;3.39;100.00
33454;BME280;39400;49.744;7.012;2023-03-04T14:32:05;96409.16;;;3.67;100.00
33454;BME280;39400;49.744;7.012;2023-03-04T14:34:33;96410.75;;;3.68;100.00
33454;BME280;39400;49.744;7.012;2023-03-04T14:36:58;96406.28;;;3.51;100.00
33454;BME280;39400;49.744;7.012;2023-03-04T14:39:26;96405.97;;;3.65;100.00
33454;BME280;39400;49.744;7.012;2023-03-04T14:41:55;96404.25;;;3.48;100.00
33454;BME280;39400;49.744;7.012;2023-03-04T14:44:24;96400.91;;;3.30;100.00
33454;BME280;39400;49.744;7.012;2023-03-04T14:46:57;96399.34;;;3.42;100.00
33454;BME280;39400;49.744;7.012;2023-03-04T14:49:23;96407.44;;;3.17;100.00
33454;BME280;39400;49.744;7.012;2023-03-04T14:51:50;96394.69;;;3.30;100.00